Terminal Aerodrome Forecast
Issued by NWS Missoula, MT

Home | Current Version | Previous Version | Text Only | Print | Product List | Glossary On
Versions: 1 2 3 4 5 6 7 8 9 10 11 12 13 14 15 16 17
000
FTUS45 KMSO 011802 AAA
TAFBTM
TAF AMD
KBTM 011802Z 0118/0218 28012KT P6SM OVC050
     FM012000 30015G25KT P6SM SCT080
     FM020300 28008KT P6SM SCT100
     FM020900 32005KT P6SM SCT020 BKN100=

USA.gov is the U.S. government's official web portal to all federal, state and local government web resources and services.